Time;durP1;ratioP1;P1;durP2;ratioP2;P2;SDS_P1;SDS_P2;PMS_P1;PMS_P2;Temp;Humidity;BMP_temperature;BMP_pressure;BME280_temperature;BME280_humidity;BME280_pressure;Samples;Min_cycle;Max_cycle;Signal;HPM_P1;HPM_P2
2022/01/11 00:00:32;;;;;;;52.33;26.42;;;;;;;1.00;87.45;102972.25;7394601;19;20048;-66
2022/01/11 00:03:00;;;;;;;46.90;25.45;;;;;;;1.03;86.94;102977.50;7390906;19;20129;-66
2022/01/11 00:05:33;;;;;;;49.42;24.90;;;;;;;1.02;87.01;102980.91;7391624;19;20025;-65
2022/01/11 00:08:02;;;;;;;;;;;;;;;1.01;87.29;102983.44;7390435;19;20054;-66
2022/01/11 00:10:35;;;;;;;49.15;25.58;;;;;;;0.93;87.64;102985.81;7390780;19;19945;-65
2022/01/11 00:13:05;;;;;;;84.47;28.58;;;;;;;0.90;88.35;102988.25;7389365;19;20081;-66
2022/01/11 00:15:36;;;;;;;57.08;27.38;;;;;;;0.99;88.13;102992.84;7388708;19;20125;-66
2022/01/11 00:18:05;;;;;;;49.97;26.85;;;;;;;0.93;88.16;102990.06;7390025;19;20019;-66
2022/01/11 00:20:36;;;;;;;63.83;27.75;;;;;;;0.88;87.97;102992.50;7390822;19;20007;-66
2022/01/11 00:25:47;;;;;;;48.92;25.35;;;;;;;0.90;87.80;102989.97;7390843;19;20072;-65
2022/01/11 00:28:18;;;;;;;62.80;27.13;;;;;;;0.89;87.69;102989.13;7390590;19;20022;-65
2022/01/11 00:30:50;;;;;;;53.15;26.63;;;;;;;0.90;87.67;102992.56;7388755;19;20010;-65
2022/01/11 00:33:24;;;;;;;59.75;29.08;;;;;;;0.85;88.17;102988.13;7388466;19;20022;-65
2022/01/11 00:36:00;;;;;;;58.58;28.30;;;;;;;0.83;88.27;102981.16;7389510;19;20135;-66
2022/01/11 00:38:31;;;;;;;55.65;28.20;;;;;;;0.81;88.50;102977.66;7389882;19;20754;-65
2022/01/11 00:41:02;;;;;;;53.80;26.88;;;;;;;0.84;88.46;102982.91;7390109;19;20356;-65
2022/01/11 00:43:32;;;;;;;89.40;30.58;;;;;;;0.90;88.09;102984.81;7388348;19;20021;-66
2022/01/11 00:46:04;;;;;;;53.10;27.30;;;;;;;0.90;88.20;102985.69;7390003;19;20010;-66
2022/01/11 00:48:32;;;;;;;72.90;28.88;;;;;;;0.88;88.43;102987.34;7390581;19;20399;-64
2022/01/11 00:51:02;;;;;;;55.15;27.25;;;;;;;0.91;88.72;102990.03;7389897;19;20014;-65
2022/01/11 00:53:31;;;;;;;89.03;28.98;;;;;;;0.97;88.58;102995.38;7388007;19;20035;-64
2022/01/11 00:56:00;;;;;;;49.58;26.00;;;;;;;0.93;87.65;103000.38;7389676;19;20103;-65
2022/01/11 00:58:29;;;;;;;62.88;26.45;;;;;;;0.80;87.90;103001.72;7390272;19;20081;-64
2022/01/11 01:00:58;;;;;;;57.60;26.90;;;;;;;0.72;87.91;103011.81;7389911;19;20585;-65
2022/01/11 01:03:30;;;;;;;48.33;25.75;;;;;;;0.73;88.29;103018.72;7388651;19;20014;-66
2022/01/11 01:05:59;;;;;;;46.27;25.13;;;;;;;0.75;87.84;103013.59;7389927;19;20014;-65
2022/01/11 01:08:28;;;;;;;69.15;26.13;;;;;;;0.67;87.71;103011.66;7390947;19;20025;-65
2022/01/11 01:10:57;;;;;;;57.95;25.73;;;;;;;0.61;87.85;103021.75;7390199;19;20010;-65
2022/01/11 01:13:29;;;;;;;55.65;26.20;;;;;;;0.67;88.22;103021.97;7388204;19;20395;-66
2022/01/11 01:15:59;;;;;;;71.90;28.05;;;;;;;0.66;88.31;103015.06;7389819;19;20014;-64
2022/01/11 01:18:34;;;;;;;66.93;26.50;;;;;;;0.74;87.90;103024.75;7390068;19;20049;-64
2022/01/11 01:21:02;;;;;;;50.53;26.48;;;;;;;0.71;88.09;103024.66;7389544;19;20049;-65
2022/01/11 01:23:31;;;;;;;54.67;26.95;;;;;;;0.74;88.61;103050.56;7387501;19;20360;-65
2022/01/11 01:26:01;;;;;;;55.38;29.10;;;;;;;0.75;88.37;103040.28;7388375;19;20010;-65
2022/01/11 01:28:30;;;;;;;53.33;27.92;;;;;;;0.71;88.06;103028.09;7389215;19;20406;-66
2022/01/11 01:31:01;;;;;;;65.38;27.75;;;;;;;0.70;88.41;103028.91;7389209;19;20329;-64
2022/01/11 01:33:35;;;;;;;65.00;29.33;;;;;;;0.63;88.48;103026.97;7387717;19;20018;-66
2022/01/11 01:36:11;;;;;;;55.33;27.80;;;;;;;0.64;88.55;103031.31;7388362;19;20021;-67
2022/01/11 01:38:41;;;;;;;52.92;27.75;;;;;;;0.65;88.47;103039.09;7388635;19;20007;-66
2022/01/11 01:41:15;;;;;;;50.70;26.30;;;;;;;0.65;88.66;103045.97;7388519;19;20102;-64
2022/01/11 01:43:45;;;;;;;53.25;27.73;;;;;;;0.72;88.74;103041.88;7386639;19;20049;-63
2022/01/11 01:46:14;;;;;;;85.32;32.20;;;;;;;0.78;88.75;103040.38;7387683;19;20021;-65
2022/01/11 01:48:46;;;;;;;54.35;27.83;;;;;;;0.83;88.44;103031.09;7388309;19;20019;-64
2022/01/11 01:51:15;;;;;;;52.17;27.08;;;;;;;0.85;88.27;103041.47;7388551;19;20021;-65
2022/01/11 01:53:46;;;;;;;55.35;28.42;;;;;;;0.84;88.41;103043.16;7386103;19;20022;-66
2022/01/11 01:56:15;;;;;;;53.67;26.45;;;;;;;0.77;88.39;103046.34;7385893;19;20010;-65
2022/01/11 01:58:45;;;;;;;49.35;26.58;;;;;;;0.69;88.25;103046.13;7386192;19;20025;-65
2022/01/11 02:01:14;;;;;;;45.78;25.42;;;;;;;0.77;88.32;103045.50;7387138;19;20576;-65
2022/01/11 02:03:47;;;;;;;44.53;25.05;;;;;;;0.71;87.74;103048.75;7386448;19;20048;-66
2022/01/11 02:06:18;;;;;;;48.63;26.33;;;;;;;0.66;88.05;103045.16;7387249;19;20018;-66
2022/01/11 02:08:48;;;;;;;54.80;25.65;;;;;;;0.72;88.02;103045.34;7384984;19;20405;-65
2022/01/11 02:11:19;;;;;;;47.22;25.85;;;;;;;0.74;87.90;103047.97;7386824;19;20046;-66
2022/01/11 02:13:49;;;;;;;46.33;25.45;;;;;;;0.75;87.96;103054.91;7384983;19;20014;-65
2022/01/11 02:16:21;;;;;;;50.92;25.55;;;;;;;0.62;87.97;103041.59;7386723;19;20025;-65
2022/01/11 02:18:53;;;;;;;46.38;24.92;;;;;;;0.72;88.18;103045.34;7386688;19;20459;-65
2022/01/11 02:21:25;;;;;;;;;;;;;;;0.74;88.13;103042.81;7387768;19;20018;-67
2022/01/11 02:23:55;;;;;;;57.60;26.42;;;;;;;0.61;88.27;103044.97;7386894;19;19921;-65
2022/01/11 02:26:24;;;;;;;51.60;26.17;;;;;;;0.64;88.38;103037.34;7383951;19;20015;-65
2022/01/11 02:28:54;;;;;;;49.58;26.15;;;;;;;0.69;88.35;103042.66;7386325;19;20014;-64
2022/01/11 02:31:23;;;;;;;51.08;27.02;;;;;;;0.79;88.41;103047.31;7386791;19;20077;-66
2022/01/11 02:33:54;;;;;;;54.53;27.23;;;;;;;0.90;87.81;103046.75;7384527;19;20491;-64
2022/01/11 02:36:30;;;;;;;51.55;27.58;;;;;;;0.87;87.81;103050.13;7385895;19;20015;-65
2022/01/11 02:39:00;;;;;;;54.53;28.05;;;;;;;0.90;87.76;103047.63;7393037;19;20030;-65
2022/01/11 02:41:30;;;;;;;53.40;27.35;;;;;;;0.91;87.40;103044.22;7393669;19;20037;-65
2022/01/11 02:44:01;;;;;;;69.32;31.13;;;;;;;0.84;87.49;103053.47;7393858;19;20023;-64
2022/01/11 02:46:31;;;;;;;59.58;29.45;;;;;;;0.84;87.35;103047.44;7391238;19;20498;-64
2022/01/11 02:48:59;;;;;;;52.47;27.95;;;;;;;0.79;87.58;103046.41;7393418;19;20010;-64
2022/01/11 02:51:31;;;;;;;67.13;28.80;;;;;;;0.78;87.75;103048.13;7393440;19;20013;-65
2022/01/11 02:54:00;;;;;;;57.85;29.33;;;;;;;0.77;87.41;103042.91;7395375;19;20018;-65
2022/01/11 02:56:29;;;;;;;53.65;29.30;;;;;;;0.73;87.89;103046.22;7395232;19;20057;-65
2022/01/11 02:58:58;;;;;;;52.90;28.83;;;;;;;0.82;88.02;103043.94;7395689;19;20019;-66
2022/01/11 03:01:27;;;;;;;55.17;29.30;;;;;;;0.90;87.87;103046.75;7395140;19;20014;-65
2022/01/11 03:03:56;;;;;;;54.88;29.10;;;;;;;0.91;87.86;103051.97;7397241;19;20501;-65
2022/01/11 03:06:25;;;;;;;53.28;28.35;;;;;;;0.98;87.63;103059.09;7396437;19;20074;-65
2022/01/11 03:08:57;;;;;;;53.33;28.70;;;;;;;0.89;87.18;103061.38;7398079;19;20022;-65
2022/01/11 03:11:32;;;;;;;54.83;27.83;;;;;;;0.88;87.50;103066.50;7395989;19;20034;-65
2022/01/11 03:14:02;;;;;;;61.92;30.80;;;;;;;0.86;87.88;103062.16;7396520;19;20349;-66
2022/01/11 03:16:31;;;;;;;59.10;29.38;;;;;;;0.92;88.02;103058.00;7393418;19;20011;-66
2022/01/11 03:19:00;;;;;;;57.15;29.48;;;;;;;0.89;87.63;103060.47;7396315;19;20044;-65
2022/01/11 03:21:30;;;;;;;62.75;31.88;;;;;;;0.87;88.11;103070.75;7395330;19;20017;-67
2022/01/11 03:24:02;;;;;;;59.40;31.00;;;;;;;0.92;87.85;103073.47;7396001;19;20018;-66
2022/01/11 03:26:31;;;;;;;58.03;30.17;;;;;;;0.88;87.99;103079.41;7395676;19;20364;-66
2022/01/11 03:29:00;;;;;;;60.88;30.70;;;;;;;0.94;87.95;103071.84;7395116;19;20046;-66
2022/01/11 03:31:28;;;;;;;58.28;29.77;;;;;;;0.94;87.79;103077.88;7394106;19;20026;-65
2022/01/11 03:33:57;;;;;;;52.97;28.90;;;;;;;0.92;87.76;103076.06;7395244;19;20025;-66
2022/01/11 03:36:26;;;;;;;62.75;31.23;;;;;;;0.89;88.13;103073.38;7393919;19;20010;-66
2022/01/11 03:38:55;;;;;;;65.78;31.98;;;;;;;0.93;88.08;103073.56;7394079;19;20487;-66
2022/01/11 03:41:26;;;;;;;52.95;29.00;;;;;;;0.84;88.07;103071.53;7394464;19;20066;-66
2022/01/11 03:43:55;;;;;;;51.88;29.05;;;;;;;0.90;87.68;103073.44;7394442;19;20018;-66
2022/01/11 03:46:24;;;;;;;63.05;31.42;;;;;;;0.85;87.91;103070.72;7393970;19;20509;-66
2022/01/11 03:48:53;;;;;;;56.72;29.23;;;;;;;0.92;87.70;103069.22;7392794;19;20320;-66
2022/01/11 03:51:22;;;;;;;50.95;27.23;;;;;;;0.88;87.45;103080.25;7390971;19;20487;-67
2022/01/11 03:54:00;;;;;;;53.97;28.65;;;;;;;0.92;87.17;103069.22;7393199;19;20015;-68
2022/01/11 03:56:32;;;;;;;49.65;28.08;;;;;;;0.87;87.38;103063.03;7396652;19;20074;-66
2022/01/11 03:59:06;;;;;;;50.80;28.52;;;;;;;0.78;87.53;103067.91;7397451;19;20093;-65
2022/01/11 04:01:35;;;;;;;48.15;27.85;;;;;;;0.83;87.56;103068.91;7394211;19;20017;-66
2022/01/11 04:04:04;;;;;;;51.97;29.48;;;;;;;0.84;87.65;103070.66;7397473;19;20018;-66
2022/01/11 04:06:33;;;;;;;52.78;29.02;;;;;;;0.86;87.70;103076.78;7397526;19;20093;-65
2022/01/11 04:09:02;;;;;;;51.85;28.50;;;;;;;0.88;87.96;103081.97;7396538;19;20347;-66
2022/01/11 04:11:34;;;;;;;48.25;27.35;;;;;;;1.00;87.52;103072.03;7390692;19;20054;-64
2022/01/11 04:14:03;;;;;;;47.92;27.40;;;;;;;0.97;87.04;103071.94;7394482;19;20011;-65
2022/01/11 04:16:32;;;;;;;48.85;27.40;;;;;;;1.00;87.04;103080.69;7394551;19;20385;-66
2022/01/11 04:19:01;;;;;;;52.45;29.02;;;;;;;0.99;86.88;103085.78;7395489;19;20017;-66
2022/01/11 04:21:30;;;;;;;46.97;27.92;;;;;;;0.97;86.54;103090.88;7393211;19;20019;-64
2022/01/11 04:23:59;;;;;;;52.20;29.67;;;;;;;0.96;86.90;103089.16;7393102;19;20014;-65
2022/01/11 04:26:27;;;;;;;49.15;27.63;;;;;;;0.98;86.98;103091.78;7392885;19;20030;-65
2022/01/11 04:28:59;;;;;;;55.72;29.95;;;;;;;0.99;86.86;103094.41;7395200;19;20021;-66
2022/01/11 04:31:28;;;;;;;55.50;30.98;;;;;;;0.97;87.29;103096.03;7393006;19;20021;-65
2022/01/11 04:33:57;;;;;;;56.65;31.05;;;;;;;1.00;87.20;103091.00;7392807;19;20489;-66
2022/01/11 04:36:26;;;;;;;55.03;29.95;;;;;;;1.07;87.07;103093.78;7391953;19;20015;-66
2022/01/11 04:38:55;;;;;;;61.67;32.08;;;;;;;1.00;86.92;103098.75;7391743;19;20320;-66
2022/01/11 04:41:24;;;;;;;53.33;30.58;;;;;;;0.86;86.62;103098.28;7391844;19;20772;-67
2022/01/11 04:43:53;;;;;;;68.22;34.60;;;;;;;0.89;86.86;103092.34;7390139;19;20028;-66
2022/01/11 04:46:26;;;;;;;61.30;33.15;;;;;;;0.80;87.05;103085.19;7390800;19;20011;-67
2022/01/11 04:48:55;;;;;;;57.90;32.58;;;;;;;0.82;87.49;103093.84;7392325;19;20317;-66
2022/01/11 04:51:25;;;;;;;61.10;32.28;;;;;;;0.91;87.45;103095.84;7389773;19;20423;-65
2022/01/11 04:53:55;;;;;;;56.22;31.95;;;;;;;0.92;87.20;103092.44;7392275;19;20378;-66
2022/01/11 04:56:24;;;;;;;63.53;33.33;;;;;;;0.90;87.39;103099.25;7389886;19;20024;-66
2022/01/11 04:58:53;;;;;;;63.15;33.47;;;;;;;0.93;87.54;103099.38;7392700;19;20112;-65
2022/01/11 05:01:24;;;;;;;66.72;35.47;;;;;;;0.88;87.35;103103.50;7390650;19;20359;-66
2022/01/11 05:03:53;;;;;;;58.60;32.20;;;;;;;0.93;87.80;103101.97;7390619;19;20040;-65
2022/01/11 05:06:22;;;;;;;57.95;33.20;;;;;;;0.94;87.80;103093.38;7391957;19;20010;-67
2022/01/11 05:08:51;;;;;;;63.15;32.70;;;;;;;1.01;87.74;103102.19;7392768;19;20066;-65
2022/01/11 05:11:21;;;;;;;53.05;29.15;;;;;;;1.06;87.40;103094.59;7390029;19;20472;-66
2022/01/11 05:13:49;;;;;;;60.42;32.45;;;;;;;1.09;87.35;103097.25;7390659;19;20018;-66
2022/01/11 05:16:18;;;;;;;50.90;28.60;;;;;;;1.07;87.00;103089.47;7392531;19;20017;-66
2022/01/11 05:18:50;;;;;;;56.28;30.98;;;;;;;1.07;86.70;103091.19;7391754;19;20448;-66
2022/01/11 05:21:18;;;;;;;54.33;29.52;;;;;;;1.11;87.16;103101.66;7391430;19;20017;-66
2022/01/11 05:23:47;;;;;;;51.45;29.42;;;;;;;1.08;87.19;103105.88;7389620;19;20082;-65
2022/01/11 05:26:16;;;;;;;46.83;27.75;;;;;;;1.14;86.96;103104.31;7391051;19;20018;-66
2022/01/11 05:28:45;;;;;;;54.55;29.58;;;;;;;1.10;87.03;103094.72;7392127;19;20007;-66
2022/01/11 05:31:14;;;;;;;57.13;30.23;;;;;;;1.11;87.12;103095.63;7389528;19;20007;-66
2022/01/11 05:33:43;;;;;;;51.42;28.38;;;;;;;1.14;86.83;103096.59;7388871;19;20019;-66
2022/01/11 05:36:14;;;;;;;55.70;29.50;;;;;;;1.11;86.75;103099.06;7390475;19;20024;-66
2022/01/11 05:38:43;;;;;;;54.72;28.63;;;;;;;1.17;86.50;103104.41;7391027;19;20015;-65
2022/01/11 05:41:12;;;;;;;51.83;28.83;;;;;;;1.19;86.27;103102.78;7392458;19;20023;-65
2022/01/11 05:43:41;;;;;;;50.15;28.13;;;;;;;1.19;86.24;103096.75;7389683;19;20010;-66
2022/01/11 05:46:10;;;;;;;52.65;28.35;;;;;;;1.16;86.33;103099.22;7390873;19;20483;-64
2022/01/11 05:48:42;;;;;;;55.60;28.27;;;;;;;1.17;86.03;103101.84;7391571;19;20019;-65
2022/01/11 05:51:14;;;;;;;51.47;27.08;;;;;;;1.20;86.02;103103.66;7390533;19;20021;-65
2022/01/11 05:53:43;;;;;;;49.88;28.48;;;;;;;1.12;86.20;103105.09;7390610;19;20022;-65
2022/01/11 05:56:12;;;;;;;48.88;27.60;;;;;;;1.10;86.60;103107.63;7390596;19;20025;-66
2022/01/11 05:58:41;;;;;;;50.13;28.02;;;;;;;1.11;86.30;103124.03;7391770;19;20045;-65
2022/01/11 06:01:10;;;;;;;52.17;28.70;;;;;;;1.07;86.18;103111.84;7392017;19;20006;-65
2022/01/11 06:03:39;;;;;;;55.38;29.23;;;;;;;1.09;86.16;103121.41;7389763;19;20043;-65
2022/01/11 06:06:08;;;;;;;48.28;26.52;;;;;;;1.06;86.30;103123.00;7390643;19;20041;-65
2022/01/11 06:08:39;;;;;;;45.72;25.75;;;;;;;1.11;86.26;103126.63;7390867;19;20021;-67
2022/01/11 06:11:09;;;;;;;44.92;26.00;;;;;;;1.05;86.14;103124.69;7389770;19;20066;-66
2022/01/11 06:13:37;;;;;;;45.78;25.63;;;;;;;1.04;86.39;103131.56;7393961;19;20018;-66
2022/01/11 06:16:07;;;;;;;47.00;25.73;;;;;;;1.08;86.59;103129.97;7397470;19;20522;-67
2022/01/11 06:18:36;;;;;;;53.00;28.48;;;;;;;1.06;86.47;103133.31;7398505;19;20011;-66
2022/01/11 06:21:06;;;;;;;47.58;26.27;;;;;;;1.03;86.50;103127.25;7397882;19;20014;-66
2022/01/11 06:23:34;;;;;;;48.13;26.73;;;;;;;1.05;86.38;103140.19;7396133;19;20014;-64
2022/01/11 06:26:06;;;;;;;46.70;26.90;;;;;;;1.16;86.21;103137.94;7394960;19;20014;-66
2022/01/11 06:28:35;;;;;;;44.95;26.17;;;;;;;1.14;86.05;103148.22;7397664;19;20015;-66
2022/01/11 06:31:04;;;;;;;51.58;28.05;;;;;;;1.07;86.46;103143.69;7396839;19;20018;-65
2022/01/11 06:33:33;;;;;;;47.10;27.52;;;;;;;1.05;86.50;103158.25;7395074;19;20007;-66
2022/01/11 06:36:02;;;;;;;51.55;28.15;;;;;;;1.07;86.54;103160.91;7396191;19;20007;-65
2022/01/11 06:38:30;;;;;;;49.95;28.45;;;;;;;1.09;86.58;103166.97;7397381;19;20325;-65
2022/01/11 06:40:59;;;;;;;54.83;29.90;;;;;;;1.08;86.39;103168.69;7397540;19;20015;-66
2022/01/11 06:43:31;;;;;;;52.65;29.33;;;;;;;1.02;86.02;103171.94;7394589;19;20024;-66
2022/01/11 06:46:00;;;;;;;50.63;28.00;;;;;;;1.00;85.86;103177.88;7395542;19;20107;-66
2022/01/11 06:48:28;;;;;;;48.47;27.25;;;;;;;1.05;86.13;103181.50;7396853;19;20024;-66
2022/01/11 06:50:57;;;;;;;51.88;28.80;;;;;;;1.08;85.97;103178.16;7395511;19;20152;-67
2022/01/11 06:53:28;;;;;;;52.70;29.38;;;;;;;1.03;86.38;103183.13;7393941;19;20135;-66
2022/01/11 06:55:57;;;;;;;53.95;29.20;;;;;;;1.06;86.18;103183.28;7396102;19;20014;-66
2022/01/11 06:58:26;;;;;;;55.22;30.40;;;;;;;1.03;86.03;103184.03;7396776;19;20018;-67
2022/01/11 07:00:57;;;;;;;64.10;33.40;;;;;;;0.99;86.26;103176.16;7396502;19;20010;-65
2022/01/11 07:03:26;;;;;;;55.83;30.40;;;;;;;1.05;86.01;103181.50;7395153;19;20033;-66
2022/01/11 07:05:55;;;;;;;59.83;32.42;;;;;;;0.97;85.95;103182.94;7396315;19;20027;-66
2022/01/11 07:08:24;;;;;;;60.05;32.28;;;;;;;1.00;86.22;103190.78;7397274;19;20020;-67
2022/01/11 07:10:54;;;;;;;60.92;32.35;;;;;;;1.07;86.19;103197.91;7396237;19;20018;-66
2022/01/11 07:13:23;;;;;;;72.63;35.35;;;;;;;0.99;86.00;103200.25;7395197;19;20058;-64
2022/01/11 07:15:51;;;;;;;64.13;34.95;;;;;;;0.94;86.35;103200.91;7395659;19;20025;-66
2022/01/11 07:18:23;;;;;;;66.95;34.53;;;;;;;0.99;86.33;103201.97;7397191;19;20030;-67
2022/01/11 07:20:52;;;;;;;63.83;34.25;;;;;;;0.99;86.27;103194.22;7396702;19;20015;-67
2022/01/11 07:23:20;;;;;;;65.75;34.83;;;;;;;0.95;86.28;103197.50;7394624;19;20483;-67
2022/01/11 07:25:49;;;;;;;67.22;34.60;;;;;;;0.95;86.47;103202.69;7396609;19;20487;-64
2022/01/11 07:28:18;;;;;;;64.55;34.38;;;;;;;0.97;86.12;103203.59;7395561;19;20021;-66
2022/01/11 07:30:47;;;;;;;63.47;34.28;;;;;;;0.93;86.33;103201.72;7395816;19;20011;-65
2022/01/11 07:33:16;;;;;;;67.25;36.17;;;;;;;0.88;86.35;103199.00;7395056;19;20021;-65
2022/01/11 07:35:47;;;;;;;62.75;34.88;;;;;;;0.90;86.57;103204.22;7396540;19;20017;-65
2022/01/11 07:38:16;;;;;;;64.85;34.25;;;;;;;0.97;86.41;103219.09;7396489;19;20015;-66
2022/01/11 07:40:45;;;;;;;61.15;33.72;;;;;;;0.99;86.55;103217.44;7396052;19;20551;-66
2022/01/11 07:43:14;;;;;;;67.28;34.50;;;;;;;1.00;86.10;103221.75;7394351;19;20119;-65
2022/01/11 07:45:43;;;;;;;58.55;32.92;;;;;;;0.99;85.91;103218.31;7396219;19;20016;-67
2022/01/11 07:48:11;;;;;;;64.60;34.55;;;;;;;0.99;86.33;103214.88;7395418;19;20006;-65
2022/01/11 07:50:40;;;;;;;61.75;32.88;;;;;;;0.94;85.96;103208.66;7395213;19;20014;-66
2022/01/11 07:53:12;;;;;;;64.95;34.83;;;;;;;0.96;85.92;103218.22;7395289;19;20014;-66
2022/01/11 07:55:41;;;;;;;59.50;32.47;;;;;;;0.97;86.15;103219.94;7396292;19;20027;-67
2022/01/11 07:58:10;;;;;;;62.85;34.00;;;;;;;1.01;86.26;103221.81;7397118;19;20011;-66
2022/01/11 08:00:38;;;;;;;66.45;33.78;;;;;;;0.99;86.11;103230.34;7397091;19;20442;-64
2022/01/11 08:03:07;;;;;;;61.30;32.95;;;;;;;0.88;86.17;103227.38;7395769;19;20014;-65
2022/01/11 08:05:36;;;;;;;52.00;30.13;;;;;;;0.86;86.61;103231.63;7395443;19;20022;-65
2022/01/11 08:08:06;;;;;;;55.80;31.10;;;;;;;0.81;86.52;103234.03;7393624;19;20018;-66
2022/01/11 08:10:37;;;;;;;48.20;27.05;;;;;;;0.86;86.77;103239.38;7395680;19;20376;-64
2022/01/11 08:13:08;;;;;;;48.63;28.23;;;;;;;0.86;86.53;103224.75;7392133;19;20014;-65
2022/01/11 08:15:37;;;;;;;42.72;25.60;;;;;;;0.88;86.19;103237.72;7394493;19;20012;-66
2022/01/11 08:18:06;;;;;;;47.63;26.38;;;;;;;0.89;86.29;103230.84;7395229;19;20026;-65
2022/01/11 08:20:35;;;;;;;42.25;25.63;;;;;;;0.93;86.47;103230.13;7394370;19;20029;-65
2022/01/11 08:23:04;;;;;;;40.58;24.38;;;;;;;0.97;86.20;103227.69;7393869;19;20026;-65
2022/01/11 08:25:33;;;;;;;44.13;25.60;;;;;;;1.03;86.33;103233.09;7397711;19;20014;-65
2022/01/11 08:28:04;;;;;;;43.60;25.70;;;;;;;1.10;86.41;103233.28;7397656;19;20066;-66
2022/01/11 08:30:34;;;;;;;46.70;27.02;;;;;;;1.15;86.25;103231.75;7399922;19;20006;-66
2022/01/11 08:33:04;;;;;;;42.53;26.00;;;;;;;1.21;85.75;103244.88;7395151;19;20018;-65
2022/01/11 08:35:33;;;;;;;40.05;25.02;;;;;;;1.23;85.84;103238.03;7397146;19;20081;-68
2022/01/11 08:38:02;;;;;;;41.40;23.90;;;;;;;1.26;85.50;103237.25;7396892;19;20090;-65
2022/01/11 08:40:31;;;;;;;44.47;25.88;;;;;;;1.29;85.39;103227.03;7396506;19;20050;-65
2022/01/11 08:43:02;;;;;;;40.85;24.70;;;;;;;1.20;85.00;103231.09;7393962;19;20014;-65
2022/01/11 08:45:35;;;;;;;39.17;24.03;;;;;;;1.27;85.03;103233.88;7395994;19;20011;-65
2022/01/11 08:48:05;;;;;;;39.28;23.15;;;;;;;1.31;84.90;103236.59;7396494;19;20322;-66
2022/01/11 08:50:34;;;;;;;45.08;27.00;;;;;;;1.35;84.73;103238.47;7384135;19;20462;-65
2022/01/11 08:53:03;;;;;;;42.97;25.60;;;;;;;1.37;84.54;103233.34;7393857;19;20007;-65
2022/01/11 08:55:32;;;;;;;43.17;26.42;;;;;;;1.42;84.78;103231.78;7392440;19;20323;-68
2022/01/11 08:58:01;;;;;;;41.50;25.02;;;;;;;1.43;84.07;103223.19;7393218;19;20353;-67
2022/01/11 09:00:29;;;;;;;41.30;24.48;;;;;;;1.44;83.90;103226.69;7392007;19;20018;-66
2022/01/11 09:03:01;;;;;;;40.78;24.55;;;;;;;1.46;84.01;103235.34;7403848;19;20022;-67
2022/01/11 09:05:30;;;;;;;40.38;24.08;;;;;;;1.47;83.67;103239.69;7390613;19;20086;-67
2022/01/11 09:07:59;;;;;;;38.67;23.77;;;;;;;1.51;83.70;103247.59;7391386;19;20429;-66
2022/01/11 09:10:28;;;;;;;40.95;23.52;;;;;;;1.57;83.74;103256.38;7391195;19;20010;-67
2022/01/11 09:12:56;;;;;;;40.38;23.92;;;;;;;1.58;83.61;103253.84;7388899;19;20026;-67
2022/01/11 09:15:25;;;;;;;37.88;23.42;;;;;;;1.63;83.60;103262.59;7389916;19;20102;-67
2022/01/11 09:17:54;;;;;;;40.25;24.83;;;;;;;1.58;83.75;103252.94;7391552;19;20107;-67
2022/01/11 09:20:26;;;;;;;39.03;23.77;;;;;;;1.67;83.55;103248.94;7392250;19;20038;-67
2022/01/11 09:22:56;;;;;;;39.47;24.63;;;;;;;1.72;83.24;103246.53;7390666;19;20007;-67
2022/01/11 09:25:25;;;;;;;39.65;24.70;;;;;;;1.80;83.43;103257.09;7389738;19;20137;-68
2022/01/11 09:27:53;;;;;;;37.38;23.13;;;;;;;1.82;83.03;103258.03;7390312;19;20014;-67
2022/01/11 09:30:23;;;;;;;40.05;24.10;;;;;;;1.84;82.86;103257.25;7391982;19;20497;-66
2022/01/11 09:32:52;;;;;;;38.15;22.70;;;;;;;1.96;83.34;103264.50;7389739;19;20483;-67
2022/01/11 09:35:21;;;;;;;37.17;23.83;;;;;;;1.98;83.15;103254.22;7390027;19;20018;-67
2022/01/11 09:37:52;;;;;;;36.47;22.58;;;;;;;2.11;83.00;103261.53;7390734;19;20023;-67
2022/01/11 09:40:21;;;;;;;40.50;23.13;;;;;;;2.17;82.91;103259.13;7391313;19;20014;-67
2022/01/11 09:42:50;;;;;;;36.35;22.65;;;;;;;2.15;82.45;103259.91;7391697;19;20107;-66
2022/01/11 09:45:19;;;;;;;39.03;24.63;;;;;;;2.26;82.26;103271.44;7389609;19;20025;-66
2022/01/11 09:47:49;;;;;;;40.90;24.05;;;;;;;2.37;82.28;103269.19;7395963;19;20347;-66
2022/01/11 09:50:20;;;;;;;35.92;23.48;;;;;;;2.45;82.23;103267.72;7398774;19;20023;-67
2022/01/11 09:52:52;;;;;;;37.03;24.60;;;;;;;2.48;81.98;103269.50;7396165;19;20078;-66
2022/01/11 09:55:20;;;;;;;38.72;23.83;;;;;;;2.51;81.52;103277.38;7396183;19;20423;-67
2022/01/11 09:57:49;;;;;;;44.65;25.45;;;;;;;2.49;81.14;103279.00;7397329;19;20011;-67
2022/01/11 10:00:19;;;;;;;36.55;22.90;;;;;;;2.50;81.15;103273.88;7397090;19;20101;-66
2022/01/11 10:02:47;;;;;;;39.42;22.83;;;;;;;2.51;81.36;103270.47;7398207;19;20010;-66
2022/01/11 10:05:17;;;;;;;37.97;22.42;;;;;;;2.54;81.16;103273.16;7395901;19;20021;-66
2022/01/11 10:07:46;;;;;;;38.88;23.90;;;;;;;2.58;81.03;103268.94;7396765;19;20319;-66
2022/01/11 10:10:21;;;;;;;40.08;24.10;;;;;;;2.54;81.00;103257.63;7398386;19;20017;-66
2022/01/11 10:12:51;;;;;;;41.63;23.98;;;;;;;2.54;81.37;103260.19;7394982;19;20011;-67
2022/01/11 10:15:29;;;;;;;47.58;27.67;;;;;;;2.56;81.74;103263.69;7395659;19;20449;-67
2022/01/11 10:17:58;;;;;;;41.33;24.35;;;;;;;2.56;81.50;103262.84;7396307;19;20123;-66
2022/01/11 10:20:27;;;;;;;40.10;24.65;;;;;;;2.59;81.65;103261.22;7395231;19;20022;-66
2022/01/11 10:22:59;;;;;;;53.33;29.10;;;;;;;2.58;81.82;103256.88;7397893;19;20018;-66
2022/01/11 10:25:32;;;;;;;41.17;21.98;;;;;;;2.63;82.18;103253.53;7395225;19;20030;-67
2022/01/11 10:28:03;;;;;;;55.70;30.02;;;;;;;2.68;82.30;103257.13;7396464;19;20018;-66
2022/01/11 10:30:33;;;;;;;47.75;27.23;;;;;;;2.73;82.36;103259.00;7398006;19;20010;-67
2022/01/11 10:33:06;;;;;;;46.05;25.85;;;;;;;2.75;82.13;103251.28;7396310;19;20015;-67
2022/01/11 10:35:42;;;;;;;43.28;24.50;;;;;;;2.74;81.87;103257.31;7394932;19;20368;-66
2022/01/11 10:38:12;;;;;;;43.67;23.92;;;;;;;2.77;81.97;103255.66;7396858;19;20572;-66
2022/01/11 10:40:45;;;;;;;40.88;23.45;;;;;;;2.82;81.99;103252.31;7396568;19;20018;-66
2022/01/11 10:43:16;;;;;;;46.03;23.38;;;;;;;2.83;81.80;103248.91;7396004;19;20032;-66
2022/01/11 10:45:46;;;;;;;39.08;21.80;;;;;;;2.82;81.56;103245.44;7394056;19;20014;-66
2022/01/11 10:48:17;;;;;;;37.70;22.40;;;;;;;2.81;81.65;103238.50;7396001;19;20018;-66
2022/01/11 10:50:49;;;;;;;41.63;23.38;;;;;;;2.79;81.57;103241.91;7396479;19;20018;-66
2022/01/11 10:53:20;;;;;;;41.25;22.00;;;;;;;2.80;81.59;103247.13;7393942;19;20509;-67
2022/01/11 10:55:55;;;;;;;44.30;24.25;;;;;;;2.81;81.54;103253.16;7391933;19;20070;-67
2022/01/11 10:58:28;;;;;;;42.05;22.83;;;;;;;2.83;81.60;103252.38;7394971;19;20007;-66
2022/01/11 11:00:58;;;;;;;40.50;22.48;;;;;;;2.92;81.70;103249.16;7398559;19;20010;-67
2022/01/11 11:03:28;;;;;;;45.92;24.42;;;;;;;2.98;81.59;103243.25;7402254;19;20330;-68
2022/01/11 11:05:59;;;;;;;43.33;22.98;;;;;;;3.03;81.31;103252.91;7396225;19;20078;-68
2022/01/11 11:08:30;;;;;;;41.53;22.17;;;;;;;3.06;81.42;103246.94;7397158;19;20010;-67
2022/01/11 11:11:07;;;;;;;42.88;23.02;;;;;;;3.09;81.46;103249.59;7399775;19;20035;-68
2022/01/11 11:13:38;;;;;;;40.72;21.60;;;;;;;3.05;81.26;103252.94;7399066;19;20015;-67
2022/01/11 11:16:14;;;;;;;42.27;23.00;;;;;;;3.04;81.43;103254.66;7399921;19;20006;-67
2022/01/11 11:18:44;;;;;;;41.10;20.88;;;;;;;3.15;81.46;103254.06;7399968;19;20071;-67
2022/01/11 11:21:18;;;;;;;37.67;21.15;;;;;;;3.21;80.98;103259.41;7401547;19;20017;-67
2022/01/11 11:23:48;;;;;;;42.72;22.98;;;;;;;3.24;81.10;103256.91;7397281;19;20015;-66
2022/01/11 11:26:22;;;;;;;40.45;21.73;;;;;;;3.23;80.94;103256.00;7398699;19;20117;-67
2022/01/11 11:28:51;;;;;;;39.95;22.30;;;;;;;3.31;80.58;103253.63;7403017;19;20074;-66
2022/01/11 11:31:21;;;;;;;36.70;21.88;;;;;;;3.37;80.74;103253.78;7394061;19;20021;-69